createdAt,value
2022-10-31T00:01:19.409Z,54.00
2022-10-31T00:04:21.338Z,52.97
2022-10-31T00:07:22.891Z,53.25
2022-10-31T00:10:24.588Z,51.47
2022-10-31T00:13:26.575Z,47.95
2022-10-31T00:16:29.595Z,57.35
2022-10-31T00:19:31.428Z,58.65
2022-10-31T00:22:33.334Z,54.85
2022-10-31T00:25:37.524Z,65.03
2022-10-31T00:28:39.491Z,55.30
2022-10-31T00:31:41.390Z,57.42
2022-10-31T00:34:43.353Z,54.90
2022-10-31T00:37:48.341Z,54.90
2022-10-31T00:40:49.959Z,63.60
2022-10-31T00:43:51.932Z,58.05
2022-10-31T00:46:53.695Z,57.35
2022-10-31T00:49:55.432Z,57.75
2022-10-31T00:52:58.055Z,53.67
2022-10-31T00:55:59.661Z,57.62
2022-10-31T00:59:01.469Z,54.17
2022-10-31T01:02:03.441Z,55.67
2022-10-31T01:05:06.033Z,63.53
2022-10-31T01:08:08.007Z,51.13
2022-10-31T01:11:20.516Z,63.75
2022-10-31T01:14:22.283Z,58.63
2022-10-31T01:17:23.842Z,52.80
2022-10-31T01:20:25.580Z,57.58
2022-10-31T01:23:28.155Z,53.10
2022-10-31T01:26:32.811Z,51.75
2022-10-31T01:29:34.721Z,50.45
2022-10-31T01:32:36.273Z,54.42
2022-10-31T01:35:37.999Z,53.60
2022-10-31T01:38:39.990Z,49.05
2022-10-31T01:41:48.411Z,47.25
2022-10-31T01:45:02.003Z,49.28
2022-10-31T01:48:03.976Z,47.53
2022-10-31T01:51:06.976Z,43.63
2022-10-31T01:54:13.438Z,40.47
2022-10-31T01:57:16.901Z,34.80
2022-10-31T02:00:21.280Z,38.75
2022-10-31T02:03:24.044Z,37.63
2022-10-31T02:06:37.170Z,31.52
2022-10-31T02:09:40.936Z,32.92
2022-10-31T02:12:43.174Z,36.70
2022-10-31T02:15:47.281Z,35.40
2022-10-31T02:18:49.280Z,34.20
2022-10-31T02:22:10.644Z,35.60
2022-10-31T02:25:43.095Z,33.78
2022-10-31T02:29:00.003Z,35.28
2022-10-31T02:32:18.988Z,37.05
2022-10-31T02:35:59.318Z,38.05
2022-10-31T02:39:22.667Z,35.25
2022-10-31T02:42:43.750Z,39.58
2022-10-31T02:45:53.554Z,38.13
2022-10-31T02:49:01.450Z,43.08
2022-10-31T02:52:03.306Z,38.60
2022-10-31T02:55:31.089Z,36.10
2022-10-31T02:58:38.790Z,38.58
2022-10-31T03:01:58.839Z,43.10
2022-10-31T03:05:15.171Z,42.20
2022-10-31T03:08:26.105Z,40.45
2022-10-31T03:11:37.941Z,44.03
2022-10-31T03:14:52.714Z,46.13
2022-10-31T03:18:08.748Z,43.13
2022-10-31T03:21:26.774Z,40.90
2022-10-31T03:27:36.625Z,43.60
2022-10-31T03:30:42.479Z,44.95
2022-10-31T03:33:47.074Z,38.70
2022-10-31T03:36:52.402Z,44.22
2022-10-31T03:39:56.255Z,43.75
2022-10-31T03:43:03.749Z,40.95
2022-10-31T03:46:06.813Z,45.15
2022-10-31T03:49:08.719Z,40.17
2022-10-31T03:52:31.416Z,42.92
2022-10-31T03:55:37.113Z,47.40
2022-10-31T03:58:47.787Z,43.20
2022-10-31T04:01:53.243Z,55.08
2022-10-31T04:04:55.377Z,55.25
2022-10-31T04:08:03.986Z,55.85
2022-10-31T04:11:07.903Z,50.08
2022-10-31T04:14:11.001Z,50.22
2022-10-31T04:17:16.415Z,53.78
2022-10-31T04:20:18.943Z,50.12
2022-10-31T04:23:24.645Z,49.78
2022-10-31T04:26:26.540Z,46.47
2022-10-31T04:29:28.205Z,45.65
2022-10-31T04:32:29.941Z,44.88
2022-10-31T04:35:31.750Z,40.95
2022-10-31T04:38:33.385Z,40.03
2022-10-31T04:41:35.221Z,42.50
2022-10-31T04:44:37.063Z,41.20
2022-10-31T04:47:38.842Z,47.58
2022-10-31T04:50:40.592Z,46.30
2022-10-31T04:53:42.246Z,44.47
2022-10-31T04:56:43.958Z,43.22
2022-10-31T04:59:45.754Z,39.85
2022-10-31T05:02:55.337Z,45.85
2022-10-31T05:05:57.132Z,46.05
2022-10-31T05:08:58.920Z,38.22
2022-10-31T05:12:00.467Z,40.10
2022-10-31T05:15:02.222Z,38.92
2022-10-31T05:18:04.538Z,39.15
2022-10-31T05:21:06.299Z,38.40
2022-10-31T05:24:08.327Z,34.65
2022-10-31T05:27:09.891Z,38.55
2022-10-31T05:30:14.275Z,42.90
2022-10-31T05:33:15.852Z,38.10
2022-10-31T05:36:17.501Z,42.40
2022-10-31T05:39:19.395Z,37.30
2022-10-31T05:42:21.286Z,30.35
2022-10-31T05:45:23.957Z,37.30
2022-10-31T05:48:25.566Z,36.47
2022-10-31T05:51:27.635Z,35.45
2022-10-31T05:54:29.301Z,38.88
2022-10-31T05:57:33.327Z,36.47
2022-10-31T06:00:36.305Z,33.63
2022-10-31T06:03:38.134Z,39.33
2022-10-31T06:06:39.874Z,34.80
2022-10-31T06:09:42.218Z,43.60
2022-10-31T06:12:43.911Z,28.10
2022-10-31T06:15:46.260Z,34.60
2022-10-31T06:18:48.655Z,29.98
2022-10-31T06:21:50.394Z,27.80
2022-10-31T06:24:54.810Z,30.75
2022-10-31T06:27:58.437Z,29.58
2022-10-31T06:30:59.969Z,28.00
2022-10-31T06:34:01.808Z,35.67
2022-10-31T06:37:03.517Z,32.00
2022-10-31T06:40:06.150Z,29.85
2022-10-31T06:43:07.946Z,32.63
2022-10-31T06:46:09.669Z,37.80
2022-10-31T06:49:11.523Z,31.92
2022-10-31T06:52:13.088Z,41.80
2022-10-31T06:55:14.999Z,37.35
2022-10-31T06:58:16.782Z,34.13
2022-10-31T07:01:18.635Z,38.42
2022-10-31T07:04:20.643Z,39.65
2022-10-31T07:07:22.740Z,42.60
2022-10-31T07:10:26.782Z,39.15
2022-10-31T07:13:28.389Z,38.50
2022-10-31T07:16:30.118Z,38.65
2022-10-31T07:19:31.927Z,37.40
2022-10-31T07:22:35.959Z,38.15
2022-10-31T07:25:38.821Z,32.53
2022-10-31T07:28:40.750Z,32.65
2022-10-31T07:31:42.671Z,36.40
2022-10-31T07:34:47.367Z,34.10
2022-10-31T07:37:50.128Z,35.50
2022-10-31T07:40:55.976Z,41.10
2022-10-31T07:43:57.765Z,38.95
2022-10-31T07:46:59.556Z,37.67
2022-10-31T07:50:01.187Z,33.92
2022-10-31T07:53:11.160Z,43.00
2022-10-31T07:56:12.944Z,36.28
2022-10-31T07:59:14.853Z,39.88
2022-10-31T08:02:16.706Z,38.47
2022-10-31T08:05:18.669Z,39.42
2022-10-31T08:08:20.734Z,38.05
2022-10-31T08:11:22.540Z,36.67
2022-10-31T08:14:27.178Z,34.83
2022-10-31T08:17:29.134Z,34.55
2022-10-31T08:20:31.159Z,36.05
2022-10-31T08:23:32.987Z,35.15
2022-10-31T08:26:34.765Z,35.08
2022-10-31T08:29:36.614Z,32.90
2022-10-31T08:32:38.480Z,34.42
2022-10-31T08:35:40.667Z,29.12
2022-10-31T08:38:42.416Z,38.80
2022-10-31T08:41:45.342Z,31.40
2022-10-31T08:44:47.080Z,38.70
2022-10-31T08:47:48.822Z,32.30
2022-10-31T08:50:50.634Z,35.13
2022-10-31T08:53:52.421Z,39.38
2022-10-31T08:56:57.290Z,35.03
2022-10-31T08:59:59.209Z,40.05
2022-10-31T09:03:06.595Z,44.13
2022-10-31T09:09:12.199Z,42.50
2022-10-31T09:12:13.766Z,41.72
2022-10-31T09:15:15.509Z,40.88
2022-10-31T09:18:22.846Z,41.55
2022-10-31T09:21:24.662Z,40.72
2022-10-31T09:24:26.402Z,46.88
2022-10-31T09:27:28.323Z,43.63
2022-10-31T09:30:32.591Z,32.03
2022-10-31T09:33:34.267Z,38.50
2022-10-31T09:36:37.401Z,31.55
2022-10-31T09:39:39.181Z,35.42
2022-10-31T09:43:26.567Z,34.85
2022-10-31T09:46:40.843Z,39.33
2022-10-31T09:50:00.816Z,37.47
2022-10-31T09:53:14.880Z,40.67
2022-10-31T09:56:20.841Z,41.45
2022-10-31T09:59:31.924Z,46.25
2022-10-31T10:02:58.387Z,47.62
2022-10-31T10:06:07.958Z,42.83
2022-10-31T10:09:11.453Z,44.08
2022-10-31T10:12:38.545Z,49.97
2022-10-31T10:15:55.817Z,47.38
2022-10-31T10:19:12.161Z,44.93
2022-10-31T10:22:28.755Z,41.70
2022-10-31T10:25:43.312Z,44.00
2022-10-31T10:28:55.819Z,43.53
2022-10-31T10:32:02.588Z,43.83
2022-10-31T10:35:16.116Z,42.55
2022-10-31T10:38:31.194Z,41.50
2022-10-31T10:41:34.951Z,49.05
2022-10-31T10:45:00.502Z,56.53
2022-10-31T10:48:15.504Z,51.83
2022-10-31T10:51:46.342Z,48.90
2022-10-31T10:54:47.676Z,48.40
2022-10-31T10:58:07.681Z,43.00
2022-10-31T11:01:16.918Z,49.80
2022-10-31T11:04:35.086Z,56.75
2022-10-31T11:07:41.204Z,57.22
2022-10-31T11:10:43.088Z,49.28
2022-10-31T11:13:50.439Z,58.15
2022-10-31T11:17:10.048Z,51.25
2022-10-31T11:20:17.885Z,52.10
2022-10-31T11:23:22.940Z,49.60
2022-10-31T11:26:24.811Z,45.70
2022-10-31T11:29:27.042Z,51.58
2022-10-31T11:32:30.752Z,50.88
2022-10-31T11:35:32.751Z,40.85
2022-10-31T11:38:44.537Z,43.28
2022-10-31T11:41:47.526Z,42.00
2022-10-31T11:44:51.186Z,43.95
2022-10-31T11:47:59.770Z,36.15
2022-10-31T11:51:01.833Z,45.42
2022-10-31T11:54:05.704Z,37.97
2022-10-31T11:57:32.757Z,33.78
2022-10-31T12:00:39.502Z,36.75
2022-10-31T12:03:56.346Z,41.65
2022-10-31T12:06:58.531Z,38.08
2022-10-31T12:10:00.480Z,47.67
2022-10-31T12:13:31.257Z,38.22
2022-10-31T12:17:18.058Z,43.87
2022-10-31T12:20:41.222Z,41.35
2022-10-31T12:23:55.329Z,198.25
2022-10-31T12:27:25.877Z,63.25
2022-10-31T12:31:05.054Z,49.20
2022-10-31T12:34:25.272Z,42.90
2022-10-31T12:37:51.379Z,34.83
2022-10-31T12:41:21.431Z,33.60
2022-10-31T12:44:37.681Z,34.05
2022-10-31T12:48:08.896Z,31.87
2022-10-31T12:51:28.387Z,31.50
2022-10-31T12:55:04.353Z,31.25
2022-10-31T12:58:18.422Z,32.63
2022-10-31T13:01:29.120Z,36.60
2022-10-31T13:04:53.506Z,29.95
2022-10-31T13:08:06.266Z,44.63
2022-10-31T13:11:11.308Z,33.50
2022-10-31T13:14:36.346Z,47.60
2022-10-31T13:17:46.717Z,40.17
2022-10-31T13:20:54.726Z,48.75
2022-10-31T13:24:02.811Z,42.55
2022-10-31T13:27:14.391Z,40.42
2022-10-31T13:30:22.168Z,50.22
2022-10-31T13:33:40.145Z,40.08
2022-10-31T13:40:15.354Z,32.67
2022-10-31T13:43:36.170Z,42.00
2022-10-31T13:46:40.587Z,35.17
2022-10-31T13:49:43.067Z,36.72
2022-10-31T13:53:10.244Z,37.67
2022-10-31T13:56:17.801Z,45.15
2022-10-31T13:59:23.819Z,44.17
2022-10-31T14:02:35.338Z,44.58
2022-10-31T14:05:37.727Z,46.30
2022-10-31T14:08:48.048Z,65.87
2022-10-31T14:11:51.592Z,50.97
2022-10-31T14:14:58.195Z,54.90
2022-10-31T14:18:03.322Z,52.28
2022-10-31T14:21:27.777Z,41.67
2022-10-31T14:24:40.792Z,45.25
2022-10-31T14:27:47.779Z,49.42
2022-10-31T14:30:58.839Z,54.83
2022-10-31T14:34:02.697Z,68.87
2022-10-31T14:37:22.940Z,72.90
2022-10-31T14:40:36.722Z,69.60
2022-10-31T14:43:56.783Z,58.95
2022-10-31T14:47:04.178Z,63.03
2022-10-31T14:50:14.496Z,69.22
2022-10-31T14:53:21.943Z,68.20
2022-10-31T14:59:34.354Z,79.75
2022-10-31T15:02:59.800Z,62.25
2022-10-31T15:06:10.675Z,63.17
2022-10-31T15:09:22.939Z,73.87
2022-10-31T15:12:40.097Z,83.97
2022-10-31T15:15:42.087Z,76.47
2022-10-31T15:19:07.178Z,79.78
2022-10-31T15:22:15.288Z,72.25
2022-10-31T15:25:27.371Z,76.70
2022-10-31T15:28:29.366Z,73.07
2022-10-31T15:31:32.204Z,76.75
2022-10-31T15:34:43.439Z,75.80
2022-10-31T15:37:45.347Z,72.47
2022-10-31T15:40:55.503Z,70.15
2022-10-31T15:44:03.571Z,55.80
2022-10-31T15:47:16.904Z,52.25
2022-10-31T15:50:28.725Z,60.67
2022-10-31T15:53:37.605Z,51.13
2022-10-31T15:56:39.250Z,47.50
2022-10-31T15:59:46.214Z,43.08
2022-10-31T16:02:47.961Z,48.65
2022-10-31T16:05:55.512Z,69.60
2022-10-31T16:08:57.306Z,63.45
2022-10-31T16:12:00.469Z,74.60
2022-10-31T16:15:02.885Z,102.87
2022-10-31T16:18:06.683Z,49.28
2022-10-31T16:21:09.929Z,59.50
2022-10-31T16:24:18.787Z,50.92
2022-10-31T16:27:30.090Z,55.55
2022-10-31T16:30:44.009Z,54.35
2022-10-31T16:33:48.632Z,56.70
2022-10-31T16:36:51.545Z,49.60
2022-10-31T16:39:53.200Z,73.50
2022-10-31T16:42:59.458Z,65.65
2022-10-31T16:46:01.697Z,61.00
2022-10-31T16:49:03.710Z,65.75
2022-10-31T16:52:06.107Z,59.38
2022-10-31T16:55:12.275Z,60.47
2022-10-31T16:58:36.034Z,73.72
2022-10-31T17:01:38.093Z,78.85
2022-10-31T17:04:41.181Z,97.57
2022-10-31T17:07:43.481Z,104.50
2022-10-31T17:10:48.078Z,74.85
2022-10-31T17:13:50.189Z,70.12
2022-10-31T17:16:52.133Z,76.03
2022-10-31T17:19:54.018Z,80.75
2022-10-31T17:22:57.173Z,85.28
2022-10-31T17:26:00.302Z,95.00
2022-10-31T17:29:03.730Z,78.03
2022-10-31T17:32:05.915Z,87.53
2022-10-31T17:35:09.651Z,87.97
2022-10-31T17:38:12.604Z,80.32
2022-10-31T17:41:14.964Z,88.05
2022-10-31T17:44:18.604Z,81.15
2022-10-31T17:47:20.490Z,84.93
2022-10-31T17:50:25.657Z,76.85
2022-10-31T17:53:32.330Z,84.93
2022-10-31T17:56:34.232Z,86.87
2022-10-31T17:59:36.197Z,87.55
2022-10-31T18:02:38.185Z,86.70
2022-10-31T18:05:51.129Z,68.03
2022-10-31T18:09:08.091Z,80.30
2022-10-31T18:12:10.075Z,76.85
2022-10-31T18:15:12.210Z,74.07
2022-10-31T18:18:15.252Z,82.15
2022-10-31T18:21:18.582Z,75.95
2022-10-31T18:24:21.226Z,74.22
2022-10-31T18:27:23.074Z,75.35
2022-10-31T18:30:24.988Z,72.12
2022-10-31T18:33:29.081Z,77.75
2022-10-31T18:36:31.784Z,81.55
2022-10-31T18:39:33.865Z,75.47
2022-10-31T18:42:38.523Z,78.43
2022-10-31T18:45:47.159Z,68.97
2022-10-31T18:48:51.247Z,82.05
2022-10-31T18:51:54.434Z,62.72
2022-10-31T18:54:56.787Z,59.08
2022-10-31T18:57:58.727Z,62.60
2022-10-31T19:01:08.791Z,59.25
2022-10-31T19:04:11.244Z,52.92
2022-10-31T19:07:13.589Z,59.67
2022-10-31T19:10:16.193Z,63.83
2022-10-31T19:13:18.522Z,65.55
2022-10-31T19:16:22.201Z,53.83
2022-10-31T19:19:24.653Z,59.95
2022-10-31T19:22:27.441Z,63.30
2022-10-31T19:25:30.494Z,65.30
2022-10-31T19:28:35.040Z,70.37
2022-10-31T19:31:37.677Z,54.53
2022-10-31T19:34:39.918Z,52.75
2022-10-31T19:37:42.909Z,61.63
2022-10-31T19:40:45.648Z,55.70
2022-10-31T19:43:48.861Z,60.42
2022-10-31T19:46:53.386Z,61.97
2022-10-31T19:49:56.234Z,53.42
2022-10-31T19:52:58.902Z,51.28
2022-10-31T19:56:02.252Z,56.95
2022-10-31T19:59:05.089Z,54.42
2022-10-31T20:02:19.850Z,53.28
2022-10-31T20:05:21.790Z,50.15
2022-10-31T20:08:25.317Z,59.88
2022-10-31T20:11:29.267Z,64.75
2022-10-31T20:14:31.884Z,61.67
2022-10-31T20:17:34.312Z,55.17
2022-10-31T20:20:36.917Z,46.65
2022-10-31T20:23:40.876Z,51.13
2022-10-31T20:26:42.926Z,58.33
2022-10-31T20:29:45.007Z,59.20
2022-10-31T20:32:50.036Z,59.47
2022-10-31T20:35:52.723Z,61.80
2022-10-31T20:38:55.040Z,54.45
2022-10-31T20:41:57.607Z,57.22
2022-10-31T20:45:02.401Z,56.45
2022-10-31T20:48:04.968Z,52.70
2022-10-31T20:54:23.899Z,55.67
2022-10-31T20:57:26.210Z,49.65
2022-10-31T21:00:28.540Z,47.78
2022-10-31T21:03:30.658Z,48.55
2022-10-31T21:06:32.889Z,50.95
2022-10-31T21:09:34.740Z,53.65
2022-10-31T21:12:36.681Z,53.25
2022-10-31T21:15:38.528Z,56.40
2022-10-31T21:18:42.494Z,49.55
2022-10-31T21:21:44.426Z,48.92
2022-10-31T21:24:46.494Z,47.53
2022-10-31T21:27:48.676Z,46.83
2022-10-31T21:30:51.978Z,52.33
2022-10-31T21:33:54.559Z,49.72
2022-10-31T21:36:56.359Z,50.38
2022-10-31T21:39:58.263Z,56.13
2022-10-31T21:43:00.460Z,55.45
2022-10-31T21:46:07.947Z,57.30
2022-10-31T21:49:10.415Z,55.95
2022-10-31T21:52:12.392Z,57.38
2022-10-31T21:55:14.121Z,47.30
2022-10-31T21:58:15.910Z,57.75
2022-10-31T22:01:18.592Z,58.65
2022-10-31T22:04:20.544Z,52.30
2022-10-31T22:07:22.090Z,46.65
2022-10-31T22:10:23.869Z,52.55
2022-10-31T22:13:25.532Z,55.00
2022-10-31T22:16:29.478Z,54.47
2022-10-31T22:19:31.337Z,53.55
2022-10-31T22:22:33.145Z,53.45
2022-10-31T22:25:37.526Z,51.65
2022-10-31T22:28:39.202Z,49.97
2022-10-31T22:31:44.055Z,44.08
2022-10-31T22:34:45.819Z,37.30
2022-10-31T22:37:47.376Z,43.03
2022-10-31T22:40:48.933Z,37.08
2022-10-31T22:43:51.543Z,40.35
2022-10-31T22:46:53.412Z,35.15
2022-10-31T22:49:55.386Z,41.58
2022-10-31T22:52:57.156Z,34.72
2022-10-31T22:55:58.711Z,36.85
2022-10-31T22:59:01.390Z,38.60
2022-10-31T23:02:06.039Z,39.60
2022-10-31T23:05:10.062Z,40.37
2022-10-31T23:08:11.655Z,35.40
2022-10-31T23:11:33.827Z,39.10
2022-10-31T23:14:35.666Z,38.65
2022-10-31T23:17:39.443Z,37.83
2022-10-31T23:23:47.807Z,42.30
2022-10-31T23:27:09.589Z,43.20
2022-10-31T23:30:11.504Z,41.85
2022-10-31T23:33:13.409Z,39.85
2022-10-31T23:36:15.441Z,36.33
2022-10-31T23:39:20.012Z,35.40
2022-10-31T23:42:25.670Z,40.67
2022-10-31T23:45:28.617Z,37.00
2022-10-31T23:48:30.686Z,38.72
2022-10-31T23:51:32.500Z,32.75
2022-10-31T23:54:34.621Z,36.35
2022-10-31T23:57:36.430Z,37.33
